createdAt,value
2022-09-10T00:02:32.529Z,100599.60
2022-09-10T00:07:31.867Z,100595.60
2022-09-10T00:12:32.008Z,100595.00
2022-09-10T00:17:31.324Z,100592.60
2022-09-10T00:22:30.110Z,100590.20
2022-09-10T00:27:29.716Z,100579.00
2022-09-10T00:32:28.908Z,100569.00
2022-09-10T00:37:28.372Z,100565.00
2022-09-10T00:42:27.885Z,100559.20
2022-09-10T00:47:33.888Z,100556.60
2022-09-10T00:52:37.580Z,100556.00
2022-09-10T00:57:39.795Z,100545.40
2022-09-10T01:02:39.320Z,100546.60
2022-09-10T01:07:39.296Z,100545.80
2022-09-10T01:13:16.020Z,100547.40
2022-09-10T01:18:35.473Z,100545.60
2022-09-10T01:24:37.293Z,100541.20
2022-09-10T01:29:46.097Z,100542.60
2022-09-10T01:34:57.711Z,100532.60
2022-09-10T01:40:00.290Z,100523.00
2022-09-10T01:45:02.841Z,100515.00
2022-09-10T01:50:24.336Z,100517.00
2022-09-10T01:55:43.011Z,100521.60
2022-09-10T02:00:53.857Z,100512.80
2022-09-10T02:05:57.854Z,100513.80
2022-09-10T02:11:01.484Z,100508.80
2022-09-10T02:16:07.139Z,100505.00
2022-09-10T02:21:15.620Z,100495.40
2022-09-10T02:26:15.963Z,100491.40
2022-09-10T02:31:15.130Z,100490.80
2022-09-10T02:36:14.696Z,100485.40
2022-09-10T02:41:15.727Z,100487.20
2022-09-10T02:46:15.312Z,100471.60
2022-09-10T02:51:15.108Z,100472.80
2022-09-10T02:56:15.462Z,100466.80
2022-09-10T03:01:18.462Z,100472.80
2022-09-10T03:06:23.478Z,100475.80
2022-09-10T03:11:24.312Z,100474.00
2022-09-10T03:16:28.038Z,100467.20
2022-09-10T03:21:29.146Z,100463.80
2022-09-10T03:26:30.686Z,100465.00
2022-09-10T03:31:30.363Z,100458.00
2022-09-10T03:36:31.596Z,100460.60
2022-09-10T03:41:32.282Z,100464.80
2022-09-10T03:46:32.830Z,100462.40
2022-09-10T03:51:34.305Z,100474.20
2022-09-10T03:56:35.716Z,100469.00
2022-09-10T04:01:34.783Z,100465.20
2022-09-10T04:06:37.426Z,100471.00
2022-09-10T04:11:37.463Z,100479.60
2022-09-10T04:16:37.465Z,100490.00
2022-09-10T04:21:38.649Z,100480.40
2022-09-10T04:26:39.703Z,100477.60
2022-09-10T04:31:39.615Z,100477.60
2022-09-10T04:36:43.571Z,100469.00
2022-09-10T04:41:42.921Z,100446.00
2022-09-10T04:46:43.775Z,100447.80
2022-09-10T04:51:43.046Z,100434.00
2022-09-10T04:56:43.118Z,100424.40
2022-09-10T05:01:45.251Z,100418.40
2022-09-10T05:06:45.150Z,100420.80
2022-09-10T05:11:44.652Z,100439.60
2022-09-10T05:16:44.656Z,100445.60
2022-09-10T05:21:46.825Z,100425.80
2022-09-10T05:26:46.962Z,100387.40
2022-09-10T05:31:45.866Z,100406.20
2022-09-10T05:36:45.932Z,100411.60
2022-09-10T05:41:47.585Z,100430.00
2022-09-10T05:46:46.527Z,100418.00
2022-09-10T05:51:46.933Z,100424.80
2022-09-10T05:56:46.183Z,100416.60
2022-09-10T06:01:46.019Z,100413.80
2022-09-10T06:06:45.869Z,100398.20
2022-09-10T06:11:45.580Z,100385.40
2022-09-10T06:16:44.283Z,100387.60
2022-09-10T06:21:43.687Z,100386.00
2022-09-10T06:26:42.785Z,100390.60
2022-09-10T06:31:44.862Z,100391.60
2022-09-10T06:36:45.841Z,100384.60
2022-09-10T06:41:49.445Z,100390.40
2022-09-10T06:52:31.371Z,100379.80
2022-09-10T06:57:34.518Z,100379.00
2022-09-10T07:02:34.747Z,100375.40
2022-09-10T07:07:34.547Z,100376.40
2022-09-10T07:12:35.548Z,100375.00
2022-09-10T07:17:37.963Z,100376.60
2022-09-10T07:22:39.762Z,100380.00
2022-09-10T07:27:41.873Z,100380.00
2022-09-10T07:32:40.515Z,100375.60
2022-09-10T07:37:48.558Z,100384.60
2022-09-10T07:42:48.351Z,100391.20
2022-09-10T07:47:48.466Z,100389.40
2022-09-10T07:52:49.475Z,100398.20
2022-09-10T07:57:48.813Z,100392.40
2022-09-10T08:02:49.804Z,100397.00
2022-09-10T08:07:54.117Z,100404.40
2022-09-10T08:12:53.587Z,100409.80
2022-09-10T08:17:53.352Z,100410.80
2022-09-10T08:22:57.618Z,100411.00
2022-09-10T08:27:58.341Z,100408.80
2022-09-10T08:32:58.132Z,100409.20
2022-09-10T08:37:57.148Z,100405.00
2022-09-10T08:42:57.741Z,100403.60
2022-09-10T08:48:08.935Z,100399.80
2022-09-10T08:53:26.929Z,100398.80
2022-09-10T08:58:35.202Z,100399.00
2022-09-10T09:03:41.769Z,100392.40
2022-09-10T09:08:50.246Z,100392.80
2022-09-10T09:14:21.255Z,100398.60
2022-09-10T09:19:33.684Z,100407.60
2022-09-10T09:24:54.025Z,100412.40
2022-09-10T09:30:03.016Z,100413.20
2022-09-10T09:35:24.004Z,100403.00
2022-09-10T09:40:34.219Z,100399.80
2022-09-10T09:45:43.882Z,100405.80
2022-09-10T09:50:49.315Z,100398.00
2022-09-10T09:55:53.936Z,100395.60
2022-09-10T10:01:07.095Z,100391.00
2022-09-10T10:06:09.776Z,100397.20
2022-09-10T10:11:14.606Z,100384.40
2022-09-10T10:16:27.030Z,100380.00
2022-09-10T10:21:34.086Z,100374.80
2022-09-10T10:26:36.977Z,100386.60
2022-09-10T10:31:44.811Z,100387.60
2022-09-10T10:36:57.426Z,100372.00
2022-09-10T10:42:14.086Z,100369.00
2022-09-10T10:47:45.435Z,100354.80
2022-09-10T10:53:06.289Z,100338.20
2022-09-10T10:58:39.832Z,100341.60
2022-09-10T11:03:46.235Z,100332.40
2022-09-10T11:08:51.894Z,100345.80
2022-09-10T11:13:58.877Z,100337.00
2022-09-10T11:19:03.707Z,100333.60
2022-09-10T11:24:16.328Z,100323.60
2022-09-10T11:29:34.373Z,100334.40
2022-09-10T11:34:47.867Z,100334.20
2022-09-10T11:39:55.304Z,100334.00
2022-09-10T11:45:04.481Z,100330.80
2022-09-10T11:50:11.387Z,100313.40
2022-09-10T11:55:17.879Z,100318.20
2022-09-10T12:00:20.986Z,100313.80
2022-09-10T12:05:31.477Z,100313.40
2022-09-10T12:10:40.251Z,100307.60
2022-09-10T12:15:40.789Z,100307.40
2022-09-10T12:20:50.185Z,100300.80
2022-09-10T12:26:00.309Z,100300.00
2022-09-10T12:31:07.041Z,100292.60
2022-09-10T12:36:06.586Z,100284.40
2022-09-10T12:41:09.808Z,100278.20
2022-09-10T12:46:25.921Z,100276.60
2022-09-10T12:51:48.719Z,100275.80
2022-09-10T12:57:28.706Z,100264.40
2022-09-10T13:02:35.479Z,100265.40
2022-09-10T13:07:44.523Z,100261.80
2022-09-10T13:12:48.714Z,100256.60
2022-09-10T13:18:29.141Z,100260.80
2022-09-10T13:23:50.880Z,100251.00
2022-09-10T13:29:12.688Z,100246.80
2022-09-10T13:35:08.659Z,100239.60
2022-09-10T13:40:58.994Z,100237.20
2022-09-10T13:46:04.029Z,100236.60
2022-09-10T13:51:17.195Z,100238.40
2022-09-10T13:56:24.395Z,100233.80
2022-09-10T14:01:42.986Z,100235.80
2022-09-10T14:06:43.507Z,100230.20
2022-09-10T14:11:46.426Z,100229.80
2022-09-10T14:16:50.169Z,100224.40
2022-09-10T14:21:53.615Z,100221.40
2022-09-10T14:27:16.947Z,100221.40
2022-09-10T14:32:37.540Z,100216.60
2022-09-10T14:37:39.056Z,100219.60
2022-09-10T14:42:38.971Z,100220.20
2022-09-10T14:47:51.479Z,100219.60
2022-09-10T14:52:51.364Z,100217.60
2022-09-10T14:57:50.705Z,100222.60
2022-09-10T15:02:50.906Z,100221.00
2022-09-10T15:07:50.383Z,100219.40
2022-09-10T15:12:53.281Z,100217.20
2022-09-10T15:17:51.754Z,100216.80
2022-09-10T15:22:50.709Z,100218.00
2022-09-10T15:27:49.645Z,100210.60
2022-09-10T15:32:48.407Z,100210.80
2022-09-10T15:37:47.308Z,100210.60
2022-09-10T15:42:46.374Z,100212.80
2022-09-10T15:47:45.465Z,100211.60
2022-09-10T15:52:46.695Z,100216.80
2022-09-10T15:57:45.796Z,100207.00
2022-09-10T16:02:48.091Z,100207.20
2022-09-10T16:07:49.850Z,100209.00
2022-09-10T16:12:49.040Z,100209.20
2022-09-10T16:17:47.692Z,100209.40
2022-09-10T16:22:46.406Z,100206.00
2022-09-10T16:27:45.557Z,100203.60
2022-09-10T16:32:44.697Z,100197.00
2022-09-10T16:37:43.121Z,100186.80
2022-09-10T16:42:42.500Z,100187.20
2022-09-10T16:47:41.584Z,100184.60
2022-09-10T16:52:41.160Z,100177.80
2022-09-10T16:57:41.414Z,100177.40
2022-09-10T17:02:40.978Z,100177.00
2022-09-10T17:07:39.868Z,100178.00
2022-09-10T17:12:38.967Z,100172.80
2022-09-10T17:17:38.499Z,100172.20
2022-09-10T17:22:37.451Z,100169.80
2022-09-10T17:27:36.380Z,100169.00
2022-09-10T17:32:36.487Z,100170.00
2022-09-10T17:37:36.132Z,100170.00
2022-09-10T17:42:34.877Z,100169.60
2022-09-10T17:47:34.656Z,100165.80
2022-09-10T17:52:33.384Z,100160.80
2022-09-10T17:57:33.134Z,100156.60
2022-09-10T18:02:32.238Z,100158.40
2022-09-10T18:07:31.576Z,100158.40
2022-09-10T18:12:30.239Z,100157.40
2022-09-10T18:17:29.685Z,100156.00
2022-09-10T18:22:28.543Z,100161.60
2022-09-10T18:27:27.788Z,100163.00
2022-09-10T18:32:26.843Z,100162.80
2022-09-10T18:37:25.864Z,100163.40
2022-09-10T18:42:24.124Z,100167.00
2022-09-10T18:47:43.656Z,100166.00
2022-09-10T18:52:45.585Z,100170.40
2022-09-10T18:57:44.628Z,100169.60
2022-09-10T19:02:46.135Z,100167.40
2022-09-10T19:07:45.306Z,100155.20
2022-09-10T19:12:44.405Z,100143.80
2022-09-10T19:17:43.848Z,100143.80
2022-09-10T19:22:44.167Z,100142.40
2022-09-10T19:27:42.505Z,100144.60
2022-09-10T19:32:41.507Z,100135.80
2022-09-10T19:37:40.550Z,100129.80
2022-09-10T19:42:39.879Z,100131.40
2022-09-10T19:47:38.739Z,100128.60
2022-09-10T19:52:38.171Z,100128.60
2022-09-10T19:57:37.415Z,100125.20
2022-09-10T20:02:39.365Z,100122.60
2022-09-10T20:07:38.771Z,100116.40
2022-09-10T20:12:38.267Z,100117.80
2022-09-10T20:17:38.469Z,100113.00
2022-09-10T20:22:38.799Z,100111.60
2022-09-10T20:27:37.745Z,100103.40
2022-09-10T20:32:37.544Z,100101.20
2022-09-10T20:37:36.420Z,100095.80
2022-09-10T20:42:35.518Z,100095.00
2022-09-10T20:47:43.164Z,100091.80
2022-09-10T20:52:44.560Z,100095.20
2022-09-10T20:57:43.844Z,100091.20
2022-09-10T21:02:42.845Z,100087.40
2022-09-10T21:07:41.596Z,100082.00
2022-09-10T21:12:40.300Z,100079.00
2022-09-10T21:17:40.369Z,100076.20
2022-09-10T21:22:39.328Z,100075.60
2022-09-10T21:27:38.038Z,100074.60
2022-09-10T21:32:38.375Z,100066.20
2022-09-10T21:37:38.128Z,100061.60
2022-09-10T21:42:37.175Z,100068.20
2022-09-10T21:47:36.621Z,100067.00
2022-09-10T21:52:35.526Z,100062.20
2022-09-10T21:57:34.006Z,100061.40
2022-09-10T22:02:33.451Z,100053.60
2022-09-10T22:07:33.493Z,100054.80
2022-09-10T22:12:32.252Z,100057.40
2022-09-10T22:17:31.316Z,100045.60
2022-09-10T22:22:30.169Z,100046.20
2022-09-10T22:27:29.170Z,100047.80
2022-09-10T22:32:28.507Z,100047.80
2022-09-10T22:37:27.040Z,100048.40
2022-09-10T22:42:26.447Z,100042.00
2022-09-10T22:47:25.305Z,100042.40
2022-09-10T22:52:24.354Z,100031.20
2022-09-10T22:57:24.776Z,100030.60
2022-09-10T23:02:24.624Z,100025.40
2022-09-10T23:07:23.260Z,100025.40
2022-09-10T23:12:22.703Z,100021.80
2022-09-10T23:17:22.772Z,100015.60
2022-09-10T23:22:22.189Z,100006.00
2022-09-10T23:27:20.941Z,100007.60
2022-09-10T23:32:20.212Z,100006.40
2022-09-10T23:37:19.959Z,100008.60
2022-09-10T23:42:21.679Z,100002.80
2022-09-10T23:47:20.934Z,99993.40
2022-09-10T23:52:20.294Z,99992.20
2022-09-10T23:57:19.340Z,99990.40
